< < Back
Terminal Aerodrome Forecast


Current Version              Previous Versions:   1  2  3  4  5  6  7  8  9  

Terminal Aerodrome Forecast

143
FTUS42 KGSP 240200 AAA
TAFAVL
TAF AMD
KAVL 240241Z 2403/2424 33005KT P6SM SCT060 BKN120
     FM240600 33004KT P6SM SCT010 BKN060
     FM240900 33004KT 3SM BR OVC003
     FM241400 32005KT P6SM VCSH SCT010 BKN040
     FM241600 32006KT P6SM -SHRA VCTS BKN035CB PROB30 2417/2421 3SM
      TSRA BKN025CB=

Latest METAR

238
SAUS70 KWBC 240600 RRL
MTRAVL
METAR KAVL 240554Z AUTO 35007KT 10SM OVC100 21/19 A3005 RMK AO2 SLP144
60000 T02110189 10239 20206 58004


USA.gov is the U.S. government's official web portal to all federal, state and local government web resources and services.